createdAt,value
2022-11-15T00:02:30.235Z,20.63
2022-11-15T00:06:34.069Z,18.88
2022-11-15T00:10:37.537Z,21.25
2022-11-15T00:14:40.969Z,17.05
2022-11-15T00:18:50.260Z,17.13
2022-11-15T00:22:53.732Z,14.52
2022-11-15T00:26:58.732Z,18.73
2022-11-15T00:31:06.625Z,18.92
2022-11-15T00:35:11.164Z,14.85
2022-11-15T00:39:14.665Z,16.23
2022-11-15T00:43:18.126Z,16.35
2022-11-15T00:47:21.492Z,18.95
2022-11-15T00:51:25.959Z,19.13
2022-11-15T00:55:29.293Z,22.38
2022-11-15T00:59:32.804Z,28.75
2022-11-15T01:03:36.253Z,17.48
2022-11-15T01:07:40.882Z,16.90
2022-11-15T01:11:44.318Z,21.13
2022-11-15T01:15:48.262Z,18.20
2022-11-15T01:19:51.495Z,15.57
2022-11-15T01:23:58.003Z,15.10
2022-11-15T01:28:01.186Z,19.80
2022-11-15T01:32:05.031Z,14.57
2022-11-15T01:36:09.673Z,23.58
2022-11-15T01:40:15.110Z,19.95
2022-11-15T01:44:45.536Z,30.20
2022-11-15T01:48:49.045Z,18.88
2022-11-15T01:52:52.286Z,14.70
2022-11-15T01:57:01.690Z,17.38
2022-11-15T02:01:04.948Z,17.27
2022-11-15T02:05:09.222Z,19.40
2022-11-15T02:09:13.425Z,12.40
2022-11-15T02:13:20.433Z,19.67
2022-11-15T02:17:41.941Z,17.27
2022-11-15T02:21:54.580Z,18.15
2022-11-15T02:26:15.567Z,12.82
2022-11-15T02:30:43.891Z,17.35
2022-11-15T02:34:53.417Z,25.67
2022-11-15T02:39:04.681Z,14.95
2022-11-15T02:43:28.861Z,15.98
2022-11-15T02:47:40.042Z,24.65
2022-11-15T02:51:47.318Z,21.27
2022-11-15T02:55:54.074Z,20.95
2022-11-15T03:00:09.347Z,20.70
2022-11-15T03:04:26.446Z,15.43
2022-11-15T03:08:34.855Z,20.55
2022-11-15T03:12:45.208Z,20.88
2022-11-15T03:16:52.093Z,19.30
2022-11-15T03:20:58.248Z,16.85
2022-11-15T03:25:06.255Z,15.73
2022-11-15T03:29:15.468Z,22.58
2022-11-15T03:33:19.744Z,21.15
2022-11-15T03:37:31.649Z,24.13
2022-11-15T03:41:42.661Z,19.20
2022-11-15T03:45:53.951Z,13.40
2022-11-15T03:50:02.984Z,20.38
2022-11-15T03:54:08.238Z,16.33
2022-11-15T03:58:11.673Z,14.40
2022-11-15T04:02:15.644Z,15.30
2022-11-15T04:06:19.296Z,17.38
2022-11-15T04:10:23.723Z,14.55
2022-11-15T04:14:27.339Z,13.73
2022-11-15T04:18:30.899Z,16.15
2022-11-15T04:22:51.854Z,18.70
2022-11-15T04:26:56.252Z,13.25
2022-11-15T04:31:00.095Z,14.45
2022-11-15T04:35:03.616Z,16.27
2022-11-15T04:39:07.117Z,12.63
2022-11-15T04:43:11.925Z,14.65
2022-11-15T04:47:14.922Z,15.15
2022-11-15T04:51:18.644Z,12.38
2022-11-15T04:55:22.563Z,11.27
2022-11-15T04:59:27.489Z,15.35
2022-11-15T05:03:48.202Z,15.38
2022-11-15T05:07:51.225Z,16.35
2022-11-15T05:11:54.615Z,42.75
2022-11-15T05:15:59.509Z,46.03
2022-11-15T05:20:02.527Z,63.08
2022-11-15T05:24:06.622Z,36.83
2022-11-15T05:28:09.693Z,41.38
2022-11-15T05:32:15.224Z,49.10
2022-11-15T05:36:23.917Z,53.28
2022-11-15T05:40:28.141Z,51.67
2022-11-15T05:44:31.787Z,46.95
2022-11-15T05:48:37.499Z,51.55
2022-11-15T05:52:41.250Z,63.67
2022-11-15T05:56:45.165Z,49.83
2022-11-15T06:00:49.270Z,38.10
2022-11-15T06:04:54.145Z,47.97
2022-11-15T06:08:57.352Z,63.55
2022-11-15T06:13:01.177Z,30.08
2022-11-15T06:17:08.655Z,34.10
2022-11-15T06:21:16.200Z,38.03
2022-11-15T06:25:19.258Z,40.42
2022-11-15T06:29:22.758Z,57.17
2022-11-15T06:33:25.760Z,37.03
2022-11-15T06:37:30.817Z,57.08
2022-11-15T06:41:36.604Z,50.42
2022-11-15T06:45:39.688Z,51.67
2022-11-15T06:49:42.672Z,51.80
2022-11-15T06:53:47.703Z,54.42
2022-11-15T06:57:52.138Z,55.58
2022-11-15T07:01:55.198Z,28.10
2022-11-15T07:06:06.628Z,35.58
2022-11-15T07:10:11.931Z,54.23
2022-11-15T07:14:15.438Z,37.67
2022-11-15T07:18:18.876Z,44.83
2022-11-15T07:22:22.486Z,38.17
2022-11-15T07:26:27.003Z,38.28
2022-11-15T07:30:30.460Z,33.90
2022-11-15T07:34:33.645Z,55.28
2022-11-15T07:38:42.532Z,44.08
2022-11-15T07:42:57.372Z,47.20
2022-11-15T07:47:01.729Z,27.67
2022-11-15T07:51:09.899Z,21.13
2022-11-15T07:55:16.587Z,32.35
2022-11-15T07:59:21.580Z,37.42
2022-11-15T08:03:25.461Z,42.50
2022-11-15T08:07:32.245Z,52.50
2022-11-15T08:11:35.430Z,40.20
2022-11-15T08:15:40.682Z,47.75
2022-11-15T08:19:44.300Z,39.05
2022-11-15T08:23:47.648Z,21.35
2022-11-15T08:27:54.325Z,43.97
2022-11-15T08:31:59.165Z,37.42
2022-11-15T08:36:03.316Z,31.63
2022-11-15T08:40:08.509Z,24.20
2022-11-15T08:44:11.609Z,35.00
2022-11-15T08:48:16.704Z,40.65
2022-11-15T08:52:20.564Z,43.15
2022-11-15T08:56:23.664Z,28.80
2022-11-15T09:00:27.577Z,26.30
2022-11-15T09:04:32.769Z,38.70
2022-11-15T09:08:51.590Z,24.50
2022-11-15T09:12:55.203Z,26.75
2022-11-15T09:16:58.881Z,24.50
2022-11-15T09:21:03.960Z,28.10
2022-11-15T09:25:11.154Z,26.70
2022-11-15T09:29:14.688Z,25.83
2022-11-15T09:33:17.813Z,19.35
2022-11-15T09:37:22.657Z,26.45
2022-11-15T09:41:41.423Z,22.85
2022-11-15T09:45:59.024Z,24.95
2022-11-15T09:50:04.669Z,24.77
2022-11-15T09:58:51.207Z,34.72
2022-11-15T10:03:10.698Z,32.42
2022-11-15T10:07:20.773Z,30.85
2022-11-15T10:11:37.913Z,22.38
2022-11-15T10:15:46.375Z,21.85
2022-11-15T10:20:05.342Z,22.92
2022-11-15T10:24:14.735Z,20.83
2022-11-15T10:28:24.390Z,33.20
2022-11-15T10:32:28.589Z,24.23
2022-11-15T10:36:31.686Z,23.27
2022-11-15T10:40:35.536Z,21.67
2022-11-15T10:44:45.382Z,25.08
2022-11-15T10:48:49.003Z,27.42
2022-11-15T10:52:52.359Z,17.17
2022-11-15T10:56:57.977Z,18.55
2022-11-15T11:01:12.528Z,27.77
2022-11-15T11:05:30.605Z,18.77
2022-11-15T11:09:36.754Z,24.55
2022-11-15T11:13:42.026Z,28.38
2022-11-15T11:18:00.322Z,21.23
2022-11-15T11:22:12.873Z,16.70
2022-11-15T11:26:37.890Z,25.42
2022-11-15T11:30:50.203Z,21.00
2022-11-15T11:35:01.414Z,23.40
2022-11-15T11:39:22.475Z,15.10
2022-11-15T11:43:32.962Z,40.03
2022-11-15T11:47:42.978Z,19.40
2022-11-15T11:51:54.098Z,19.17
2022-11-15T11:56:01.431Z,21.42
2022-11-15T12:00:15.338Z,24.42
2022-11-15T12:04:21.608Z,29.17
2022-11-15T12:08:51.455Z,23.25
2022-11-15T12:13:03.595Z,22.63
2022-11-15T12:17:07.311Z,29.33
2022-11-15T12:21:18.339Z,19.83
2022-11-15T12:25:25.284Z,19.75
2022-11-15T12:29:36.741Z,18.27
2022-11-15T12:33:43.495Z,25.05
2022-11-15T12:37:58.850Z,21.30
2022-11-15T12:42:35.190Z,19.23
2022-11-15T12:47:07.108Z,22.00
2022-11-15T12:51:10.148Z,16.88
2022-11-15T12:55:34.414Z,20.25
2022-11-15T12:59:56.042Z,23.70
2022-11-15T13:04:25.316Z,23.52
2022-11-15T13:08:52.013Z,27.85
2022-11-15T13:12:58.701Z,24.17
2022-11-15T13:17:02.119Z,31.38
2022-11-15T13:21:39.386Z,26.10
2022-11-15T13:25:57.884Z,24.02
2022-11-15T13:30:18.800Z,22.23
2022-11-15T13:39:03.483Z,18.17
2022-11-15T18:39:46.523Z,15.75
2022-11-15T18:43:52.660Z,19.70
2022-11-15T18:47:56.130Z,20.98
2022-11-15T18:51:59.777Z,22.58
2022-11-15T18:56:05.539Z,24.10
2022-11-15T19:00:10.979Z,12.82
2022-11-15T19:04:16.018Z,16.58
2022-11-15T19:08:19.674Z,20.63
2022-11-15T19:12:24.634Z,16.08
2022-11-15T19:16:29.278Z,14.13
2022-11-15T19:20:33.281Z,19.55
2022-11-15T19:24:37.103Z,17.80
2022-11-15T19:28:41.872Z,20.80
2022-11-15T19:32:47.167Z,17.30
2022-11-15T19:36:50.670Z,14.70
2022-11-15T19:41:00.049Z,20.00
2022-11-15T19:45:05.673Z,17.92
2022-11-15T19:49:12.278Z,16.02
2022-11-15T19:53:15.458Z,15.38
2022-11-15T19:57:21.289Z,20.80
2022-11-15T20:01:29.674Z,14.70
2022-11-15T20:05:32.890Z,14.15
2022-11-15T20:09:37.478Z,22.02
2022-11-15T20:13:43.442Z,12.95
2022-11-15T20:17:52.169Z,15.15
2022-11-15T20:21:55.485Z,15.00
2022-11-15T20:25:59.302Z,17.27
2022-11-15T20:30:03.021Z,18.02
2022-11-15T20:34:08.090Z,17.77
2022-11-15T20:38:12.082Z,15.48
2022-11-15T20:42:15.969Z,16.95
2022-11-15T20:46:20.137Z,12.65
2022-11-15T20:50:42.191Z,14.18
2022-11-15T20:58:51.603Z,15.18
2022-11-15T21:02:56.384Z,16.40
2022-11-15T21:07:01.874Z,15.77
2022-11-15T21:11:22.974Z,15.80
2022-11-15T21:15:26.216Z,12.18
2022-11-15T21:19:35.543Z,12.00
2022-11-15T21:23:42.258Z,13.35
2022-11-15T21:27:46.636Z,20.10
2022-11-15T21:31:51.930Z,14.75
2022-11-15T21:35:57.087Z,21.00
2022-11-15T21:40:02.698Z,23.30
2022-11-15T21:44:07.814Z,20.73
2022-11-15T21:48:11.797Z,18.55
2022-11-15T21:52:15.461Z,18.30
2022-11-15T21:56:20.386Z,16.67
2022-11-15T22:00:41.775Z,14.95
2022-11-15T22:04:45.509Z,19.58
2022-11-15T22:08:49.307Z,13.98
2022-11-15T22:12:53.741Z,12.52
2022-11-15T22:16:56.900Z,15.02
2022-11-15T22:21:02.192Z,13.32
2022-11-15T22:25:05.911Z,15.18
2022-11-15T22:29:10.944Z,18.20
2022-11-15T22:33:14.151Z,15.70
2022-11-15T22:37:21.300Z,13.38
2022-11-15T22:41:25.055Z,14.02
2022-11-15T22:45:30.104Z,16.85
2022-11-15T22:49:33.329Z,14.18
2022-11-15T22:53:36.956Z,12.77
2022-11-15T22:57:40.530Z,14.30
2022-11-15T23:01:45.487Z,12.52
2022-11-15T23:05:49.486Z,13.25
2022-11-15T23:09:55.470Z,13.48
2022-11-15T23:13:58.004Z,13.50
2022-11-15T23:18:02.416Z,11.88
2022-11-15T23:22:23.433Z,12.80
2022-11-15T23:26:26.974Z,12.20
2022-11-15T23:30:47.943Z,12.90
2022-11-15T23:34:52.451Z,11.38
2022-11-15T23:38:56.393Z,11.73
2022-11-15T23:43:00.396Z,10.50
2022-11-15T23:47:03.559Z,10.45
2022-11-15T23:51:10.530Z,11.32
2022-11-15T23:55:13.576Z,7.70
2022-11-15T23:59:17.162Z,9.38
